sensor_id;sensor_type;location;lat;lon;timestamp;temperature;humidity
27559;DHT22;15002;52.028;5.670;2023-04-24T00:00:08;12.70;99.90
27559;DHT22;15002;52.028;5.670;2023-04-24T00:02:38;12.60;99.90
27559;DHT22;15002;52.028;5.670;2023-04-24T00:05:05;12.60;99.90
27559;DHT22;15002;52.028;5.670;2023-04-24T00:07:31;12.50;99.90
27559;DHT22;15002;52.028;5.670;2023-04-24T00:09:57;12.50;99.90
27559;DHT22;15002;52.028;5.670;2023-04-24T00:12:23;12.50;99.90
27559;DHT22;15002;52.028;5.670;2023-04-24T00:14:48;12.50;99.90
27559;DHT22;15002;52.028;5.670;2023-04-24T00:17:14;12.60;99.90
27559;DHT22;15002;52.028;5.670;2023-04-24T00:19:40;12.50;99.90
27559;DHT22;15002;52.028;5.670;2023-04-24T00:22:06;12.50;99.90
27559;DHT22;15002;52.028;5.670;2023-04-24T00:24:32;12.50;99.90
27559;DHT22;15002;52.028;5.670;2023-04-24T00:26:58;12.60;99.90
27559;DHT22;15002;52.028;5.670;2023-04-24T00:29:24;12.50;99.90
27559;DHT22;15002;52.028;5.670;2023-04-24T00:31:50;12.60;99.90
27559;DHT22;15002;52.028;5.670;2023-04-24T00:34:16;12.60;99.90
27559;DHT22;15002;52.028;5.670;2023-04-24T00:36:41;12.60;99.90
27559;DHT22;15002;52.028;5.670;2023-04-24T00:39:07;12.60;99.90
27559;DHT22;15002;52.028;5.670;2023-04-24T00:41:36;12.60;99.90
27559;DHT22;15002;52.028;5.670;2023-04-24T00:44:01;12.50;99.90
27559;DHT22;15002;52.028;5.670;2023-04-24T00:46:28;12.50;99.90
27559;DHT22;15002;52.028;5.670;2023-04-24T00:48:54;12.50;99.90
27559;DHT22;15002;52.028;5.670;2023-04-24T00:51:21;12.60;99.90
27559;DHT22;15002;52.028;5.670;2023-04-24T00:53:46;12.50;99.90
27559;DHT22;15002;52.028;5.670;2023-04-24T00:56:12;12.50;99.90
27559;DHT22;15002;52.028;5.670;2023-04-24T00:58:38;12.60;99.90
27559;DHT22;15002;52.028;5.670;2023-04-24T01:01:05;12.70;99.90
27559;DHT22;15002;52.028;5.670;2023-04-24T01:03:33;12.70;99.90
27559;DHT22;15002;52.028;5.670;2023-04-24T01:05:59;12.70;99.90
27559;DHT22;15002;52.028;5.670;2023-04-24T01:08:26;12.70;99.90
27559;DHT22;15002;52.028;5.670;2023-04-24T01:10:54;12.90;99.90
27559;DHT22;15002;52.028;5.670;2023-04-24T01:13:20;12.90;99.90
27559;DHT22;15002;52.028;5.670;2023-04-24T01:15:46;12.70;99.90
27559;DHT22;15002;52.028;5.670;2023-04-24T01:18:13;12.60;99.90
27559;DHT22;15002;52.028;5.670;2023-04-24T01:20:40;12.60;99.90
27559;DHT22;15002;52.028;5.670;2023-04-24T01:23:07;12.50;99.90
27559;DHT22;15002;52.028;5.670;2023-04-24T01:25:33;12.60;99.90
27559;DHT22;15002;52.028;5.670;2023-04-24T01:27:59;12.50;99.90
27559;DHT22;15002;52.028;5.670;2023-04-24T01:30:26;12.40;99.90
27559;DHT22;15002;52.028;5.670;2023-04-24T01:32:52;12.40;99.90
27559;DHT22;15002;52.028;5.670;2023-04-24T01:35:19;12.40;99.90
27559;DHT22;15002;52.028;5.670;2023-04-24T01:37:45;12.50;99.90
27559;DHT22;15002;52.028;5.670;2023-04-24T01:40:11;12.50;99.90
27559;DHT22;15002;52.028;5.670;2023-04-24T01:42:37;12.50;99.90
27559;DHT22;15002;52.028;5.670;2023-04-24T01:45:04;12.50;99.90
27559;DHT22;15002;52.028;5.670;2023-04-24T01:47:33;12.60;99.90
27559;DHT22;15002;52.028;5.670;2023-04-24T01:49:59;12.50;99.90
27559;DHT22;15002;52.028;5.670;2023-04-24T01:52:25;12.60;99.90
27559;DHT22;15002;52.028;5.670;2023-04-24T01:54:52;12.70;99.90
27559;DHT22;15002;52.028;5.670;2023-04-24T01:57:17;12.60;99.90
27559;DHT22;15002;52.028;5.670;2023-04-24T01:59:43;12.60;99.90
27559;DHT22;15002;52.028;5.670;2023-04-24T02:02:08;12.70;99.90
27559;DHT22;15002;52.028;5.670;2023-04-24T02:04:34;12.70;99.90
27559;DHT22;15002;52.028;5.670;2023-04-24T02:07:00;12.50;99.90
27559;DHT22;15002;52.028;5.670;2023-04-24T02:09:25;12.50;99.90
27559;DHT22;15002;52.028;5.670;2023-04-24T02:11:51;12.60;99.90
27559;DHT22;15002;52.028;5.670;2023-04-24T02:14:17;12.50;99.90
27559;DHT22;15002;52.028;5.670;2023-04-24T02:16:42;12.60;99.90
27559;DHT22;15002;52.028;5.670;2023-04-24T02:19:09;12.70;99.90
27559;DHT22;15002;52.028;5.670;2023-04-24T02:21:35;12.70;99.90
27559;DHT22;15002;52.028;5.670;2023-04-24T02:24:00;12.70;99.90
27559;DHT22;15002;52.028;5.670;2023-04-24T02:26:26;12.70;99.90
27559;DHT22;15002;52.028;5.670;2023-04-24T02:28:52;12.60;99.90
27559;DHT22;15002;52.028;5.670;2023-04-24T02:31:17;12.50;99.90
27559;DHT22;15002;52.028;5.670;2023-04-24T02:33:43;12.60;99.90
27559;DHT22;15002;52.028;5.670;2023-04-24T02:36:09;12.70;99.90
27559;DHT22;15002;52.028;5.670;2023-04-24T02:38:34;12.70;99.90
27559;DHT22;15002;52.028;5.670;2023-04-24T02:41:00;12.70;99.90
27559;DHT22;15002;52.028;5.670;2023-04-24T02:43:27;12.70;99.90
27559;DHT22;15002;52.028;5.670;2023-04-24T02:45:53;12.80;99.90
27559;DHT22;15002;52.028;5.670;2023-04-24T02:48:19;12.70;99.90
27559;DHT22;15002;52.028;5.670;2023-04-24T02:50:46;12.70;99.90
27559;DHT22;15002;52.028;5.670;2023-04-24T02:53:11;12.80;99.90
27559;DHT22;15002;52.028;5.670;2023-04-24T02:55:37;12.80;99.90
27559;DHT22;15002;52.028;5.670;2023-04-24T02:58:03;12.70;99.90
27559;DHT22;15002;52.028;5.670;2023-04-24T03:00:28;12.80;99.90
27559;DHT22;15002;52.028;5.670;2023-04-24T03:02:54;12.70;99.90
27559;DHT22;15002;52.028;5.670;2023-04-24T03:05:20;12.60;99.90
27559;DHT22;15002;52.028;5.670;2023-04-24T03:07:45;12.60;99.90
27559;DHT22;15002;52.028;5.670;2023-04-24T03:10:11;12.60;99.90
27559;DHT22;15002;52.028;5.670;2023-04-24T03:12:37;12.70;99.90
27559;DHT22;15002;52.028;5.670;2023-04-24T03:15:03;12.60;99.90
27559;DHT22;15002;52.028;5.670;2023-04-24T03:17:28;12.60;99.90
27559;DHT22;15002;52.028;5.670;2023-04-24T03:19:54;12.50;99.90
27559;DHT22;15002;52.028;5.670;2023-04-24T03:22:20;12.50;99.90
27559;DHT22;15002;52.028;5.670;2023-04-24T03:24:46;12.40;99.90
27559;DHT22;15002;52.028;5.670;2023-04-24T03:27:11;12.40;99.90
27559;DHT22;15002;52.028;5.670;2023-04-24T03:29:37;12.40;99.90
27559;DHT22;15002;52.028;5.670;2023-04-24T03:32:02;12.40;99.90
27559;DHT22;15002;52.028;5.670;2023-04-24T03:34:28;12.50;99.90
27559;DHT22;15002;52.028;5.670;2023-04-24T03:36:55;12.50;99.90
27559;DHT22;15002;52.028;5.670;2023-04-24T03:39:20;12.50;99.90
27559;DHT22;15002;52.028;5.670;2023-04-24T03:41:46;12.50;99.90
27559;DHT22;15002;52.028;5.670;2023-04-24T03:44:11;12.60;99.90
27559;DHT22;15002;52.028;5.670;2023-04-24T03:46:37;12.60;99.90
27559;DHT22;15002;52.028;5.670;2023-04-24T03:49:03;12.60;99.90
27559;DHT22;15002;52.028;5.670;2023-04-24T03:51:28;12.60;99.90
27559;DHT22;15002;52.028;5.670;2023-04-24T03:53:55;12.60;99.90
27559;DHT22;15002;52.028;5.670;2023-04-24T03:56:21;12.70;99.90
27559;DHT22;15002;52.028;5.670;2023-04-24T03:58:46;12.80;99.90
27559;DHT22;15002;52.028;5.670;2023-04-24T04:01:12;12.80;99.90
27559;DHT22;15002;52.028;5.670;2023-04-24T04:03:38;12.80;99.90
27559;DHT22;15002;52.028;5.670;2023-04-24T04:06:04;12.80;99.90
27559;DHT22;15002;52.028;5.670;2023-04-24T04:08:30;13.00;99.90
27559;DHT22;15002;52.028;5.670;2023-04-24T04:10:55;12.90;99.90
27559;DHT22;15002;52.028;5.670;2023-04-24T04:13:21;12.90;99.90
27559;DHT22;15002;52.028;5.670;2023-04-24T04:15:46;12.90;99.90
27559;DHT22;15002;52.028;5.670;2023-04-24T04:18:12;12.70;99.90
27559;DHT22;15002;52.028;5.670;2023-04-24T04:20:38;12.70;99.90
27559;DHT22;15002;52.028;5.670;2023-04-24T04:23:03;12.80;99.90
27559;DHT22;15002;52.028;5.670;2023-04-24T04:25:29;12.80;99.90
27559;DHT22;15002;52.028;5.670;2023-04-24T04:27:55;12.50;99.90
27559;DHT22;15002;52.028;5.670;2023-04-24T04:30:20;12.70;99.90
27559;DHT22;15002;52.028;5.670;2023-04-24T04:32:46;12.50;99.90
27559;DHT22;15002;52.028;5.670;2023-04-24T04:35:12;12.30;99.90
27559;DHT22;15002;52.028;5.670;2023-04-24T04:37:38;12.20;99.90
27559;DHT22;15002;52.028;5.670;2023-04-24T04:40:04;12.30;99.90
27559;DHT22;15002;52.028;5.670;2023-04-24T04:42:33;12.40;99.90
27559;DHT22;15002;52.028;5.670;2023-04-24T04:45:06;12.50;99.90
27559;DHT22;15002;52.028;5.670;2023-04-24T04:47:34;12.50;99.90
27559;DHT22;15002;52.028;5.670;2023-04-24T04:50:00;12.50;99.90
27559;DHT22;15002;52.028;5.670;2023-04-24T04:52:26;12.50;99.90
27559;DHT22;15002;52.028;5.670;2023-04-24T04:54:52;12.60;99.90
27559;DHT22;15002;52.028;5.670;2023-04-24T04:57:17;12.70;99.90
27559;DHT22;15002;52.028;5.670;2023-04-24T04:59:43;12.70;99.90
27559;DHT22;15002;52.028;5.670;2023-04-24T05:02:09;12.70;99.90
27559;DHT22;15002;52.028;5.670;2023-04-24T05:04:34;12.70;99.90
27559;DHT22;15002;52.028;5.670;2023-04-24T05:07:00;12.60;99.90
27559;DHT22;15002;52.028;5.670;2023-04-24T05:09:26;12.60;99.90
27559;DHT22;15002;52.028;5.670;2023-04-24T05:11:53;12.70;99.90
27559;DHT22;15002;52.028;5.670;2023-04-24T05:14:18;12.70;99.90
27559;DHT22;15002;52.028;5.670;2023-04-24T05:16:44;12.70;99.90
27559;DHT22;15002;52.028;5.670;2023-04-24T05:19:10;12.70;99.90
27559;DHT22;15002;52.028;5.670;2023-04-24T05:21:37;12.70;99.90
27559;DHT22;15002;52.028;5.670;2023-04-24T05:24:04;12.70;99.90
27559;DHT22;15002;52.028;5.670;2023-04-24T05:26:31;12.70;99.90
27559;DHT22;15002;52.028;5.670;2023-04-24T05:28:56;12.80;99.90
27559;DHT22;15002;52.028;5.670;2023-04-24T05:31:22;12.80;99.90
27559;DHT22;15002;52.028;5.670;2023-04-24T05:33:47;12.80;99.90
27559;DHT22;15002;52.028;5.670;2023-04-24T05:36:13;12.80;99.90
27559;DHT22;15002;52.028;5.670;2023-04-24T05:38:39;12.90;99.90
27559;DHT22;15002;52.028;5.670;2023-04-24T05:41:04;13.00;99.90
27559;DHT22;15002;52.028;5.670;2023-04-24T05:43:30;12.90;99.90
27559;DHT22;15002;52.028;5.670;2023-04-24T05:45:56;12.90;99.90
27559;DHT22;15002;52.028;5.670;2023-04-24T05:48:21;12.90;99.90
27559;DHT22;15002;52.028;5.670;2023-04-24T05:50:48;12.90;99.90
27559;DHT22;15002;52.028;5.670;2023-04-24T05:53:13;12.90;99.90
27559;DHT22;15002;52.028;5.670;2023-04-24T05:55:39;12.90;99.90
27559;DHT22;15002;52.028;5.670;2023-04-24T05:58:05;12.90;99.90
27559;DHT22;15002;52.028;5.670;2023-04-24T06:00:31;12.90;99.90
27559;DHT22;15002;52.028;5.670;2023-04-24T06:03:00;12.90;99.90
27559;DHT22;15002;52.028;5.670;2023-04-24T06:05:26;12.90;99.90
27559;DHT22;15002;52.028;5.670;2023-04-24T06:07:51;12.90;99.90
27559;DHT22;15002;52.028;5.670;2023-04-24T06:10:17;13.00;99.90
27559;DHT22;15002;52.028;5.670;2023-04-24T06:12:43;13.10;99.90
27559;DHT22;15002;52.028;5.670;2023-04-24T06:15:09;13.10;99.90
27559;DHT22;15002;52.028;5.670;2023-04-24T06:17:35;13.10;99.90
27559;DHT22;15002;52.028;5.670;2023-04-24T06:20:01;13.10;99.90
27559;DHT22;15002;52.028;5.670;2023-04-24T06:22:26;13.20;99.90
27559;DHT22;15002;52.028;5.670;2023-04-24T06:24:52;13.20;99.90
27559;DHT22;15002;52.028;5.670;2023-04-24T06:27:18;13.30;99.90
27559;DHT22;15002;52.028;5.670;2023-04-24T06:29:43;13.30;99.90
27559;DHT22;15002;52.028;5.670;2023-04-24T06:32:09;13.30;99.90
27559;DHT22;15002;52.028;5.670;2023-04-24T06:34:35;13.30;99.90
27559;DHT22;15002;52.028;5.670;2023-04-24T06:37:01;13.30;99.90
27559;DHT22;15002;52.028;5.670;2023-04-24T06:39:27;13.30;99.90
27559;DHT22;15002;52.028;5.670;2023-04-24T06:41:53;13.30;99.90
27559;DHT22;15002;52.028;5.670;2023-04-24T06:44:18;13.30;99.90
27559;DHT22;15002;52.028;5.670;2023-04-24T06:46:44;13.20;99.90
27559;DHT22;15002;52.028;5.670;2023-04-24T06:49:10;13.20;99.90
27559;DHT22;15002;52.028;5.670;2023-04-24T06:51:35;13.20;99.90
27559;DHT22;15002;52.028;5.670;2023-04-24T06:54:01;13.10;99.90
27559;DHT22;15002;52.028;5.670;2023-04-24T06:56:27;13.20;99.90
27559;DHT22;15002;52.028;5.670;2023-04-24T06:58:54;13.10;99.90
27559;DHT22;15002;52.028;5.670;2023-04-24T07:01:20;13.10;99.90
27559;DHT22;15002;52.028;5.670;2023-04-24T07:03:46;13.10;99.90
27559;DHT22;15002;52.028;5.670;2023-04-24T07:06:11;13.10;99.90
27559;DHT22;15002;52.028;5.670;2023-04-24T07:08:38;13.00;99.90
27559;DHT22;15002;52.028;5.670;2023-04-24T07:11:04;13.00;99.90
27559;DHT22;15002;52.028;5.670;2023-04-24T07:13:29;13.00;99.90
27559;DHT22;15002;52.028;5.670;2023-04-24T07:15:55;13.00;99.90
27559;DHT22;15002;52.028;5.670;2023-04-24T07:18:21;12.90;99.90
27559;DHT22;15002;52.028;5.670;2023-04-24T07:20:47;12.90;99.90
27559;DHT22;15002;52.028;5.670;2023-04-24T07:23:15;12.90;99.90
27559;DHT22;15002;52.028;5.670;2023-04-24T07:25:41;12.90;99.90
27559;DHT22;15002;52.028;5.670;2023-04-24T07:28:07;12.90;99.90
27559;DHT22;15002;52.028;5.670;2023-04-24T07:30:32;12.80;99.90
27559;DHT22;15002;52.028;5.670;2023-04-24T07:32:59;12.70;99.90
27559;DHT22;15002;52.028;5.670;2023-04-24T07:35:26;12.70;99.90
27559;DHT22;15002;52.028;5.670;2023-04-24T07:37:53;12.60;99.90
27559;DHT22;15002;52.028;5.670;2023-04-24T07:40:20;12.50;99.90
27559;DHT22;15002;52.028;5.670;2023-04-24T07:42:46;12.70;99.90
27559;DHT22;15002;52.028;5.670;2023-04-24T07:45:14;12.60;99.90
27559;DHT22;15002;52.028;5.670;2023-04-24T07:47:41;12.60;99.90
27559;DHT22;15002;52.028;5.670;2023-04-24T07:50:09;12.60;99.90
27559;DHT22;15002;52.028;5.670;2023-04-24T07:52:35;12.60;99.90
27559;DHT22;15002;52.028;5.670;2023-04-24T07:55:01;12.60;99.90
27559;DHT22;15002;52.028;5.670;2023-04-24T07:57:28;12.60;99.90
27559;DHT22;15002;52.028;5.670;2023-04-24T07:59:54;12.70;99.90
27559;DHT22;15002;52.028;5.670;2023-04-24T08:02:20;12.70;99.90
27559;DHT22;15002;52.028;5.670;2023-04-24T08:04:52;12.60;99.90
27559;DHT22;15002;52.028;5.670;2023-04-24T08:07:18;12.60;99.90
27559;DHT22;15002;52.028;5.670;2023-04-24T08:09:44;12.60;99.90
27559;DHT22;15002;52.028;5.670;2023-04-24T08:12:09;12.50;99.90
27559;DHT22;15002;52.028;5.670;2023-04-24T08:14:35;12.60;99.90
27559;DHT22;15002;52.028;5.670;2023-04-24T08:17:01;12.60;99.90
27559;DHT22;15002;52.028;5.670;2023-04-24T08:19:27;12.60;99.90
27559;DHT22;15002;52.028;5.670;2023-04-24T08:21:53;12.60;99.90
27559;DHT22;15002;52.028;5.670;2023-04-24T08:24:19;12.60;99.90
27559;DHT22;15002;52.028;5.670;2023-04-24T08:26:44;12.70;99.90
27559;DHT22;15002;52.028;5.670;2023-04-24T08:29:10;12.70;99.90
27559;DHT22;15002;52.028;5.670;2023-04-24T08:31:36;12.60;99.90
27559;DHT22;15002;52.028;5.670;2023-04-24T08:34:01;12.60;99.90
27559;DHT22;15002;52.028;5.670;2023-04-24T08:36:27;12.70;99.90
27559;DHT22;15002;52.028;5.670;2023-04-24T08:38:53;12.70;99.90
27559;DHT22;15002;52.028;5.670;2023-04-24T08:41:19;12.70;99.90
27559;DHT22;15002;52.028;5.670;2023-04-24T08:43:48;12.60;99.90
27559;DHT22;15002;52.028;5.670;2023-04-24T08:46:15;12.60;99.90
27559;DHT22;15002;52.028;5.670;2023-04-24T08:48:42;12.60;99.90
27559;DHT22;15002;52.028;5.670;2023-04-24T08:51:08;12.60;99.90
27559;DHT22;15002;52.028;5.670;2023-04-24T08:53:35;12.50;99.90
27559;DHT22;15002;52.028;5.670;2023-04-24T08:56:02;12.50;99.90
27559;DHT22;15002;52.028;5.670;2023-04-24T08:58:28;12.40;99.90
27559;DHT22;15002;52.028;5.670;2023-04-24T09:00:55;12.50;99.90
27559;DHT22;15002;52.028;5.670;2023-04-24T09:03:21;12.60;99.90
27559;DHT22;15002;52.028;5.670;2023-04-24T09:05:48;12.60;99.90
27559;DHT22;15002;52.028;5.670;2023-04-24T09:08:16;12.70;99.90
27559;DHT22;15002;52.028;5.670;2023-04-24T09:10:42;12.60;99.90
27559;DHT22;15002;52.028;5.670;2023-04-24T09:13:08;12.60;99.90
27559;DHT22;15002;52.028;5.670;2023-04-24T09:15:39;12.60;99.90
27559;DHT22;15002;52.028;5.670;2023-04-24T09:18:05;12.70;99.90
27559;DHT22;15002;52.028;5.670;2023-04-24T09:21:00;12.80;99.90
27559;DHT22;15002;52.028;5.670;2023-04-24T09:23:30;13.00;99.90
27559;DHT22;15002;52.028;5.670;2023-04-24T09:25:57;13.10;99.90
27559;DHT22;15002;52.028;5.670;2023-04-24T09:28:39;13.10;99.90
27559;DHT22;15002;52.028;5.670;2023-04-24T09:31:11;13.00;99.90
27559;DHT22;15002;52.028;5.670;2023-04-24T09:33:37;13.00;99.90
27559;DHT22;15002;52.028;5.670;2023-04-24T09:36:03;13.00;99.90
27559;DHT22;15002;52.028;5.670;2023-04-24T09:38:36;13.00;99.90
27559;DHT22;15002;52.028;5.670;2023-04-24T09:41:05;13.20;99.90
27559;DHT22;15002;52.028;5.670;2023-04-24T09:43:31;13.20;99.90
27559;DHT22;15002;52.028;5.670;2023-04-24T09:45:58;13.30;99.90
27559;DHT22;15002;52.028;5.670;2023-04-24T09:48:31;13.30;99.90
27559;DHT22;15002;52.028;5.670;2023-04-24T09:50:57;13.30;99.90
27559;DHT22;15002;52.028;5.670;2023-04-24T09:53:24;13.50;99.90
27559;DHT22;15002;52.028;5.670;2023-04-24T09:55:51;13.60;99.90
27559;DHT22;15002;52.028;5.670;2023-04-24T09:58:24;13.70;99.90
27559;DHT22;15002;52.028;5.670;2023-04-24T10:00:52;13.60;99.90
27559;DHT22;15002;52.028;5.670;2023-04-24T10:03:18;13.60;99.90
27559;DHT22;15002;52.028;5.670;2023-04-24T10:05:46;13.50;99.90
27559;DHT22;15002;52.028;5.670;2023-04-24T10:08:13;13.70;99.90
27559;DHT22;15002;52.028;5.670;2023-04-24T10:10:41;13.90;99.90
27559;DHT22;15002;52.028;5.670;2023-04-24T10:13:09;14.00;99.90
27559;DHT22;15002;52.028;5.670;2023-04-24T10:15:36;14.20;99.90
27559;DHT22;15002;52.028;5.670;2023-04-24T10:18:04;14.20;99.90
27559;DHT22;15002;52.028;5.670;2023-04-24T10:20:32;14.40;99.90
27559;DHT22;15002;52.028;5.670;2023-04-24T10:22:59;14.30;99.90
27559;DHT22;15002;52.028;5.670;2023-04-24T10:25:30;14.00;99.90
27559;DHT22;15002;52.028;5.670;2023-04-24T10:27:57;13.80;99.90
27559;DHT22;15002;52.028;5.670;2023-04-24T10:30:30;13.90;99.90
27559;DHT22;15002;52.028;5.670;2023-04-24T10:32:56;13.90;99.90
27559;DHT22;15002;52.028;5.670;2023-04-24T10:35:22;13.90;99.90
27559;DHT22;15002;52.028;5.670;2023-04-24T10:37:56;13.70;99.90
27559;DHT22;15002;52.028;5.670;2023-04-24T10:45:33;14.00;99.90
27559;DHT22;15002;52.028;5.670;2023-04-24T10:48:03;14.00;99.90
27559;DHT22;15002;52.028;5.670;2023-04-24T10:50:41;14.30;99.90
27559;DHT22;15002;52.028;5.670;2023-04-24T10:53:16;14.40;99.90
27559;DHT22;15002;52.028;5.670;2023-04-24T10:58:12;14.30;99.90
27559;DHT22;15002;52.028;5.670;2023-04-24T11:00:40;13.90;99.90
27559;DHT22;15002;52.028;5.670;2023-04-24T11:03:23;14.00;99.90
27559;DHT22;15002;52.028;5.670;2023-04-24T11:06:04;14.10;99.90
27559;DHT22;15002;52.028;5.670;2023-04-24T11:08:39;14.00;99.90
27559;DHT22;15002;52.028;5.670;2023-04-24T11:16:42;14.40;99.90
27559;DHT22;15002;52.028;5.670;2023-04-24T11:21:48;14.40;99.90
27559;DHT22;15002;52.028;5.670;2023-04-24T11:29:42;14.40;99.90
27559;DHT22;15002;52.028;5.670;2023-04-24T11:34:46;14.60;99.90
27559;DHT22;15002;52.028;5.670;2023-04-24T11:37:13;14.30;99.90
27559;DHT22;15002;52.028;5.670;2023-04-24T11:39:44;14.30;99.90
27559;DHT22;15002;52.028;5.670;2023-04-24T11:42:10;14.30;99.90
27559;DHT22;15002;52.028;5.670;2023-04-24T11:44:36;14.00;99.90
27559;DHT22;15002;52.028;5.670;2023-04-24T11:47:05;13.90;99.90
27559;DHT22;15002;52.028;5.670;2023-04-24T11:49:32;13.60;99.90
27559;DHT22;15002;52.028;5.670;2023-04-24T11:51:59;13.60;99.90
27559;DHT22;15002;52.028;5.670;2023-04-24T11:54:26;13.70;99.90
27559;DHT22;15002;52.028;5.670;2023-04-24T11:56:52;13.70;99.90
27559;DHT22;15002;52.028;5.670;2023-04-24T11:59:17;13.70;99.90
27559;DHT22;15002;52.028;5.670;2023-04-24T12:01:47;13.70;99.90
27559;DHT22;15002;52.028;5.670;2023-04-24T12:04:14;13.90;99.90
27559;DHT22;15002;52.028;5.670;2023-04-24T12:06:58;14.00;99.90
27559;DHT22;15002;52.028;5.670;2023-04-24T12:09:24;14.20;99.90
27559;DHT22;15002;52.028;5.670;2023-04-24T12:11:54;14.10;99.90
27559;DHT22;15002;52.028;5.670;2023-04-24T12:14:22;14.40;99.90
27559;DHT22;15002;52.028;5.670;2023-04-24T12:16:49;14.50;99.90
27559;DHT22;15002;52.028;5.670;2023-04-24T12:19:23;14.30;99.90
27559;DHT22;15002;52.028;5.670;2023-04-24T12:22:09;14.40;99.90
27559;DHT22;15002;52.028;5.670;2023-04-24T12:24:34;14.50;99.90
27559;DHT22;15002;52.028;5.670;2023-04-24T12:27:00;14.60;99.90
27559;DHT22;15002;52.028;5.670;2023-04-24T12:29:26;14.70;99.90
27559;DHT22;15002;52.028;5.670;2023-04-24T12:31:52;14.80;99.90
27559;DHT22;15002;52.028;5.670;2023-04-24T12:34:22;15.10;99.90
27559;DHT22;15002;52.028;5.670;2023-04-24T12:36:48;15.00;99.90
27559;DHT22;15002;52.028;5.670;2023-04-24T12:39:18;15.20;99.90
27559;DHT22;15002;52.028;5.670;2023-04-24T12:41:55;14.90;99.90
27559;DHT22;15002;52.028;5.670;2023-04-24T12:44:31;14.90;99.90
27559;DHT22;15002;52.028;5.670;2023-04-24T12:47:00;14.70;99.90
27559;DHT22;15002;52.028;5.670;2023-04-24T12:49:26;14.70;99.90
27559;DHT22;15002;52.028;5.670;2023-04-24T12:51:52;14.60;99.90
27559;DHT22;15002;52.028;5.670;2023-04-24T12:54:17;14.50;99.90
27559;DHT22;15002;52.028;5.670;2023-04-24T12:56:43;14.70;99.90
27559;DHT22;15002;52.028;5.670;2023-04-24T12:59:08;14.80;99.90
27559;DHT22;15002;52.028;5.670;2023-04-24T13:01:34;14.90;99.90
27559;DHT22;15002;52.028;5.670;2023-04-24T13:04:00;14.90;99.90
27559;DHT22;15002;52.028;5.670;2023-04-24T13:06:25;15.00;99.90
27559;DHT22;15002;52.028;5.670;2023-04-24T13:08:52;14.80;99.90
27559;DHT22;15002;52.028;5.670;2023-04-24T13:11:17;14.60;99.90
27559;DHT22;15002;52.028;5.670;2023-04-24T13:13:43;14.70;99.90
27559;DHT22;15002;52.028;5.670;2023-04-24T13:16:09;14.50;99.90
27559;DHT22;15002;52.028;5.670;2023-04-24T13:18:35;14.20;99.90
27559;DHT22;15002;52.028;5.670;2023-04-24T13:21:01;14.10;99.90
27559;DHT22;15002;52.028;5.670;2023-04-24T13:23:27;14.20;99.90
27559;DHT22;15002;52.028;5.670;2023-04-24T13:25:53;14.30;99.90
27559;DHT22;15002;52.028;5.670;2023-04-24T13:28:22;14.20;99.90
27559;DHT22;15002;52.028;5.670;2023-04-24T13:30:48;14.00;99.90
27559;DHT22;15002;52.028;5.670;2023-04-24T13:33:14;14.00;99.90
27559;DHT22;15002;52.028;5.670;2023-04-24T13:35:40;14.00;99.90
27559;DHT22;15002;52.028;5.670;2023-04-24T13:38:05;14.10;99.90
27559;DHT22;15002;52.028;5.670;2023-04-24T13:40:32;14.00;99.90
27559;DHT22;15002;52.028;5.670;2023-04-24T13:42:58;14.00;99.90
27559;DHT22;15002;52.028;5.670;2023-04-24T13:45:24;14.20;99.90
27559;DHT22;15002;52.028;5.670;2023-04-24T13:47:49;14.20;99.90
27559;DHT22;15002;52.028;5.670;2023-04-24T13:50:15;14.20;99.90
27559;DHT22;15002;52.028;5.670;2023-04-24T13:52:41;14.50;99.90
27559;DHT22;15002;52.028;5.670;2023-04-24T13:55:07;14.70;99.90
27559;DHT22;15002;52.028;5.670;2023-04-24T13:57:33;14.80;99.90
27559;DHT22;15002;52.028;5.670;2023-04-24T13:59:59;15.00;99.90
27559;DHT22;15002;52.028;5.670;2023-04-24T14:02:29;15.00;99.90
27559;DHT22;15002;52.028;5.670;2023-04-24T14:04:55;15.10;99.90
27559;DHT22;15002;52.028;5.670;2023-04-24T14:07:21;15.20;99.90
27559;DHT22;15002;52.028;5.670;2023-04-24T14:09:46;15.10;99.70
27559;DHT22;15002;52.028;5.670;2023-04-24T14:12:12;14.90;99.90
27559;DHT22;15002;52.028;5.670;2023-04-24T14:14:39;14.90;99.90
27559;DHT22;15002;52.028;5.670;2023-04-24T14:17:05;15.00;99.90
27559;DHT22;15002;52.028;5.670;2023-04-24T14:19:31;15.00;99.90
27559;DHT22;15002;52.028;5.670;2023-04-24T14:21:56;15.00;99.90
27559;DHT22;15002;52.028;5.670;2023-04-24T14:24:23;15.10;99.90
27559;DHT22;15002;52.028;5.670;2023-04-24T14:26:49;15.10;99.90
27559;DHT22;15002;52.028;5.670;2023-04-24T14:29:15;15.00;99.90
27559;DHT22;15002;52.028;5.670;2023-04-24T14:31:42;14.80;99.30
27559;DHT22;15002;52.028;5.670;2023-04-24T14:34:08;14.80;98.80
27559;DHT22;15002;52.028;5.670;2023-04-24T14:36:34;14.90;98.70
27559;DHT22;15002;52.028;5.670;2023-04-24T14:39:00;14.90;98.90
27559;DHT22;15002;52.028;5.670;2023-04-24T14:41:30;14.90;98.00
27559;DHT22;15002;52.028;5.670;2023-04-24T14:43:56;15.10;97.20
27559;DHT22;15002;52.028;5.670;2023-04-24T14:46:22;14.90;97.50
27559;DHT22;15002;52.028;5.670;2023-04-24T14:48:48;14.70;97.90
27559;DHT22;15002;52.028;5.670;2023-04-24T14:51:13;14.70;98.70
27559;DHT22;15002;52.028;5.670;2023-04-24T14:53:39;14.70;98.60
27559;DHT22;15002;52.028;5.670;2023-04-24T14:56:05;14.80;98.90
27559;DHT22;15002;52.028;5.670;2023-04-24T14:58:30;14.80;98.90
27559;DHT22;15002;52.028;5.670;2023-04-24T15:00:56;14.90;99.10
27559;DHT22;15002;52.028;5.670;2023-04-24T15:03:22;14.80;98.90
27559;DHT22;15002;52.028;5.670;2023-04-24T15:05:48;14.90;98.80
27559;DHT22;15002;52.028;5.670;2023-04-24T15:08:14;15.00;98.30
27559;DHT22;15002;52.028;5.670;2023-04-24T15:10:40;14.90;98.50
27559;DHT22;15002;52.028;5.670;2023-04-24T15:13:05;14.90;98.60
27559;DHT22;15002;52.028;5.670;2023-04-24T15:15:31;15.10;98.00
27559;DHT22;15002;52.028;5.670;2023-04-24T15:17:57;15.00;98.00
27559;DHT22;15002;52.028;5.670;2023-04-24T15:20:22;15.10;97.90
27559;DHT22;15002;52.028;5.670;2023-04-24T15:22:48;15.00;98.20
27559;DHT22;15002;52.028;5.670;2023-04-24T15:25:13;14.80;97.80
27559;DHT22;15002;52.028;5.670;2023-04-24T15:27:43;14.70;98.20
27559;DHT22;15002;52.028;5.670;2023-04-24T15:30:10;14.90;98.50
27559;DHT22;15002;52.028;5.670;2023-04-24T15:32:36;14.60;98.50
27559;DHT22;15002;52.028;5.670;2023-04-24T15:35:02;14.60;98.80
27559;DHT22;15002;52.028;5.670;2023-04-24T15:37:28;14.40;99.60
27559;DHT22;15002;52.028;5.670;2023-04-24T15:39:53;14.50;99.50
27559;DHT22;15002;52.028;5.670;2023-04-24T15:42:19;14.50;99.30
27559;DHT22;15002;52.028;5.670;2023-04-24T15:44:45;14.50;99.50
27559;DHT22;15002;52.028;5.670;2023-04-24T15:47:10;14.30;99.90
27559;DHT22;15002;52.028;5.670;2023-04-24T15:49:38;14.10;99.90